Time;durP1;ratioP1;P1;durP2;ratioP2;P2;SDS_P1;SDS_P2;PMS_P1;PMS_P2;Temp;Humidity;BMP_temperature;BMP_pressure;BME280_temperature;BME280_humidity;BME280_pressure;Samples;Min_cycle;Max_cycle;Signal;HPM_P1;HPM_P2
2021/10/09 00:02:05;;;;;;;25.23;14.63;;;;;;;4.66;57.31;101972.41;5129009;27;20490;-71
2021/10/09 00:04:32;;;;;;;27.17;15.63;;;;;;;4.62;57.58;101975.16;5130022;27;20054;-70
2021/10/09 00:06:59;;;;;;;33.33;17.92;;;;;;;4.62;57.50;101977.75;5129132;27;20051;-70
2021/10/09 00:09:28;;;;;;;44.70;21.55;;;;;;;4.62;57.76;101976.00;5131428;27;20058;-74
2021/10/09 00:11:55;;;;;;;44.50;23.23;;;;;;;4.62;57.89;101969.91;5132685;27;20054;-69
2021/10/09 00:14:22;;;;;;;31.38;20.63;;;;;;;4.62;57.96;101973.38;5128709;27;20054;-70
2021/10/09 00:16:49;;;;;;;44.28;23.70;;;;;;;4.60;58.01;101977.78;5128270;27;20536;-68
2021/10/09 00:19:16;;;;;;;32.17;19.83;;;;;;;4.61;58.08;101971.66;5128896;27;20036;-71
2021/10/09 00:21:44;;;;;;;37.60;19.83;;;;;;;4.59;58.02;101970.81;5127817;27;20055;-72
2021/10/09 00:24:12;;;;;;;35.22;17.17;;;;;;;4.51;58.00;101977.97;5128657;27;20058;-71
2021/10/09 00:26:41;;;;;;;35.20;18.85;;;;;;;4.47;57.96;101981.53;5128994;27;20047;-72
2021/10/09 00:29:08;;;;;;;38.40;19.48;;;;;;;4.42;58.02;101979.00;5129435;27;20051;-73
2021/10/09 00:31:35;;;;;;;43.33;22.23;;;;;;;4.40;58.06;101980.78;5129258;27;20049;-73
2021/10/09 00:34:03;;;;;;;36.08;18.65;;;;;;;4.39;58.08;101976.44;5129152;27;20125;-73
2021/10/09 00:36:30;;;;;;;39.90;21.17;;;;;;;4.37;58.17;101979.06;5128603;27;20047;-71
2021/10/09 00:38:57;;;;;;;38.85;18.58;;;;;;;4.38;58.26;101977.34;5129043;27;20053;-71
2021/10/09 00:41:24;;;;;;;33.83;18.02;;;;;;;4.40;58.18;101973.78;5128837;27;20724;-73
2021/10/09 00:43:53;;;;;;;36.22;19.80;;;;;;;4.44;58.22;101976.38;5128563;27;20043;-72
2021/10/09 00:46:20;;;;;;;35.95;19.48;;;;;;;4.44;58.27;101976.38;5129103;27;20559;-72
2021/10/09 00:48:47;;;;;;;40.55;20.25;;;;;;;4.40;58.15;101975.56;5129131;27;20047;-74
2021/10/09 00:51:14;;;;;;;40.63;19.67;;;;;;;4.37;58.46;101973.84;5127602;27;20047;-74
2021/10/09 00:53:42;;;;;;;39.60;20.15;;;;;;;4.34;58.36;101966.06;5127611;27;20054;-76
2021/10/09 00:56:10;;;;;;;39.95;19.85;;;;;;;4.31;58.41;101971.34;5129235;27;20043;-73
2021/10/09 00:58:39;;;;;;;46.45;23.35;;;;;;;4.26;58.43;101970.56;5130546;27;20126;-75
2021/10/09 01:01:07;;;;;;;31.55;18.67;;;;;;;4.26;58.36;101974.97;5134802;27;20053;-73
2021/10/09 01:03:36;;;;;;;36.72;19.25;;;;;;;4.23;58.30;101975.84;5129510;27;20043;-75
2021/10/09 01:06:02;;;;;;;37.30;19.42;;;;;;;4.21;58.56;101967.19;5130165;27;20414;-73
2021/10/09 01:08:29;;;;;;;37.97;22.02;;;;;;;4.19;58.60;101972.44;5129749;27;20051;-74
2021/10/09 01:10:56;;;;;;;42.42;21.10;;;;;;;4.18;58.44;101970.72;5130603;27;20039;-74
2021/10/09 01:13:23;;;;;;;36.97;19.70;;;;;;;4.18;58.81;101970.72;5129568;27;20047;-69
2021/10/09 01:15:50;;;;;;;35.13;21.52;;;;;;;4.19;58.84;101972.44;5128490;27;20360;-70
2021/10/09 01:18:20;;;;;;;41.70;22.48;;;;;;;4.21;58.81;101964.56;5127924;27;20047;-73
2021/10/09 01:20:50;;;;;;;38.50;21.60;;;;;;;4.24;58.87;101969.75;5127043;27;20131;-74
2021/10/09 01:23:18;;;;;;;40.97;24.85;;;;;;;4.22;58.92;101974.16;5128188;27;20049;-74
2021/10/09 01:25:45;;;;;;;36.85;24.17;;;;;;;4.22;59.00;101963.69;5128293;27;20051;-75
2021/10/09 01:28:12;;;;;;;48.33;25.52;;;;;;;4.20;59.41;101963.72;5128274;27;20225;-71
2021/10/09 01:30:39;;;;;;;39.67;21.42;;;;;;;4.25;59.81;101968.88;5127338;27;20058;-70
2021/10/09 01:33:07;;;;;;;46.22;24.35;;;;;;;4.31;59.93;101960.91;5128429;27;20482;-70
2021/10/09 01:35:46;;;;;;;32.25;19.45;;;;;;;4.36;59.94;101971.28;5127730;27;20043;-74
2021/10/09 01:38:14;;;;;;;33.88;17.58;;;;;;;4.34;59.49;101968.69;5127484;27;20143;-71
2021/10/09 01:40:43;;;;;;;30.20;17.77;;;;;;;4.32;59.34;101967.88;5116270;27;20056;-72
2021/10/09 01:43:10;;;;;;;32.58;19.40;;;;;;;4.30;59.43;101964.38;5111565;28;20054;-73
2021/10/09 01:45:41;;;;;;;33.50;17.27;;;;;;;4.30;59.18;101969.63;5118850;28;20054;-74
2021/10/09 01:48:08;;;;;;;33.10;18.35;;;;;;;4.27;59.15;101963.59;5123128;28;20047;-73
2021/10/09 01:50:36;;;;;;;30.70;16.95;;;;;;;4.19;59.19;101968.97;5116070;28;20103;-75
2021/10/09 01:53:05;;;;;;;31.95;16.80;;;;;;;4.13;59.46;101969.94;5112290;28;20065;-76
2021/10/09 01:55:35;;;;;;;33.63;18.85;;;;;;;4.14;59.51;101968.19;5107908;28;20047;-73
2021/10/09 01:58:02;;;;;;;28.17;14.55;;;;;;;4.14;59.18;101971.69;5107990;28;20076;-74
2021/10/09 02:00:29;;;;;;;33.35;17.00;;;;;;;4.18;59.27;101969.88;5108141;28;20063;-74
2021/10/09 02:03:01;;;;;;;26.48;15.35;;;;;;;4.23;59.32;101965.41;5107367;28;20047;-75
2021/10/09 02:05:28;;;;;;;30.42;17.08;;;;;;;4.26;59.30;101959.25;5108111;28;20093;-74
2021/10/09 02:07:55;;;;;;;25.63;15.60;;;;;;;4.29;59.55;101960.06;5089713;28;20086;-75
2021/10/09 02:10:22;;;;;;;28.17;16.17;;;;;;;4.34;59.55;101959.97;5106905;28;20047;-75
2021/10/09 02:12:51;;;;;;;26.52;15.57;;;;;;;4.34;59.55;101971.31;5106330;28;20486;-71
2021/10/09 02:15:20;;;;;;;31.30;16.45;;;;;;;4.35;59.42;101962.56;5106319;28;20135;-75
2021/10/09 02:26:08;;;;;;;25.92;14.05;;;;;;;4.38;59.45;101961.66;5002893;28;20465;-73
2021/10/09 02:28:37;;;;;;;24.45;13.73;;;;;;;4.36;59.57;101966.91;5024723;28;20675;-73
2021/10/09 02:31:04;;;;;;;24.73;13.43;;;;;;;4.33;59.42;101969.56;5025025;28;20089;-76
2021/10/09 02:33:30;;;;;;;24.40;13.27;;;;;;;4.31;59.56;101973.97;5024249;28;20441;-74
2021/10/09 02:35:57;;;;;;;26.67;14.98;;;;;;;4.30;59.62;101971.38;5023077;28;20692;-73
2021/10/09 02:38:24;;;;;;;24.90;13.07;;;;;;;4.29;59.70;101972.28;5023947;28;20152;-72
2021/10/09 02:40:51;;;;;;;29.95;14.77;;;;;;;4.27;59.51;101969.69;5034938;28;20531;-74
2021/10/09 02:43:18;;;;;;;25.27;14.15;;;;;;;4.25;59.85;101970.59;5042678;28;20140;-69
2021/10/09 02:45:50;;;;;;;24.15;14.18;;;;;;;4.24;59.79;101972.38;5042622;28;20049;-72
2021/10/09 02:48:16;;;;;;;29.55;15.27;;;;;;;4.18;59.70;101969.88;5043834;28;20059;-75
2021/10/09 02:50:44;;;;;;;27.10;15.00;;;;;;;4.14;59.73;101974.31;5043123;28;20092;-73
2021/10/09 02:53:12;;;;;;;30.92;14.63;;;;;;;4.11;59.76;101963.88;5045833;28;20820;-73
2021/10/09 02:55:39;;;;;;;24.90;13.38;;;;;;;4.09;59.84;101964.78;5056965;28;20039;-73
2021/10/09 02:58:06;;;;;;;24.85;13.68;;;;;;;4.06;59.74;101968.34;5109992;28;20054;-73
2021/10/09 03:00:34;;;;;;;24.13;14.15;;;;;;;4.04;59.97;101971.88;5093168;28;20048;-74
2021/10/09 03:03:02;;;;;;;22.27;12.98;;;;;;;4.02;59.87;101980.59;5110868;28;20054;-72
2021/10/09 03:05:30;;;;;;;28.15;15.80;;;;;;;4.01;59.89;101975.38;5110077;28;20058;-71
2021/10/09 03:07:56;;;;;;;27.90;12.77;;;;;;;4.00;59.94;101979.75;5110761;28;20414;-72
2021/10/09 03:10:23;;;;;;;20.77;14.00;;;;;;;3.98;59.98;101973.69;5110318;28;20047;-71
2021/10/09 03:12:51;;;;;;;20.23;11.95;;;;;;;3.96;60.02;101972.88;5109626;28;20043;-73
2021/10/09 03:15:17;;;;;;;26.70;13.88;;;;;;;3.94;60.01;101972.03;5110169;28;20051;-72
2021/10/09 03:17:44;;;;;;;26.35;12.30;;;;;;;3.93;59.92;101975.53;5110075;28;20054;-71
2021/10/09 03:20:13;;;;;;;18.92;12.05;;;;;;;3.95;59.95;101978.13;5110111;28;20062;-70
2021/10/09 03:22:44;;;;;;;23.02;12.70;;;;;;;3.92;59.90;101979.03;5109042;28;20043;-75
2021/10/09 03:25:11;;;;;;;22.35;12.30;;;;;;;3.93;59.78;101982.53;5111585;28;20047;-72
2021/10/09 03:27:38;;;;;;;27.05;14.73;;;;;;;3.90;59.93;101979.94;5110173;28;20039;-71
2021/10/09 03:30:07;;;;;;;23.15;14.30;;;;;;;3.87;59.87;101980.88;5110854;28;20546;-71
2021/10/09 03:32:34;;;;;;;31.42;14.95;;;;;;;3.81;59.81;101979.19;5110140;28;20060;-70
2021/10/09 03:35:01;;;;;;;20.90;12.43;;;;;;;3.77;59.82;101974.91;5109794;28;20510;-69
2021/10/09 03:37:30;;;;;;;23.30;12.68;;;;;;;3.71;59.70;101971.53;5109933;28;20070;-72
2021/10/09 03:40:01;;;;;;;22.52;13.18;;;;;;;3.66;59.68;101970.78;5109052;28;20055;-70
2021/10/09 03:42:33;;;;;;;26.25;13.80;;;;;;;3.61;60.02;101969.06;5108691;28;20054;-71
2021/10/09 03:45:04;;;;;;;22.67;13.30;;;;;;;3.59;59.74;101972.63;5110503;28;20093;-70
2021/10/09 03:47:44;;;;;;;30.27;14.73;;;;;;;3.56;59.99;101970.91;5109377;28;20145;-70
2021/10/09 03:50:20;;;;;;;23.80;14.63;;;;;;;3.56;59.70;101967.44;5109613;28;20586;-71
2021/10/09 03:52:47;;;;;;;22.30;13.23;;;;;;;3.54;59.79;101967.44;5107536;28;20051;-70
2021/10/09 03:55:16;;;;;;;24.42;13.35;;;;;;;3.54;59.83;101958.75;5108317;28;20442;-69
2021/10/09 03:57:44;;;;;;;30.52;12.63;;;;;;;3.49;59.94;101961.44;5109568;28;20483;-72
2021/10/09 04:00:13;;;;;;;26.13;13.40;;;;;;;3.46;59.78;101961.50;5108943;28;20714;-71
2021/10/09 04:02:41;;;;;;;23.40;13.77;;;;;;;3.43;59.77;101964.16;5107833;28;20127;-70
2021/10/09 04:05:08;;;;;;;26.50;14.10;;;;;;;3.39;60.06;101960.72;5108800;28;20483;-72
2021/10/09 04:07:36;;;;;;;23.50;12.68;;;;;;;3.36;59.97;101963.38;5109357;28;20610;-71
2021/10/09 04:10:05;;;;;;;21.95;12.57;;;;;;;3.34;60.01;101964.28;5108588;28;20476;-71
2021/10/09 04:12:31;;;;;;;25.10;13.55;;;;;;;3.31;59.91;101967.78;5108964;28;20044;-70
2021/10/09 04:14:59;;;;;;;22.83;12.63;;;;;;;3.31;59.90;101974.78;5108873;28;20040;-71
2021/10/09 04:17:25;;;;;;;21.80;13.07;;;;;;;3.28;59.96;101967.84;5108246;28;20040;-70
2021/10/09 04:19:52;;;;;;;20.88;13.50;;;;;;;3.25;59.92;101965.28;5109167;28;20509;-70
2021/10/09 04:22:19;;;;;;;25.52;12.38;;;;;;;3.24;59.90;101968.75;5107409;28;20522;-70
2021/10/09 04:24:46;;;;;;;24.77;16.73;;;;;;;3.20;60.21;101974.94;5108538;28;20047;-72
2021/10/09 04:27:15;;;;;;;26.42;16.52;;;;;;;3.23;60.45;101974.91;5109708;28;20043;-70
2021/10/09 04:29:42;;;;;;;27.88;13.75;;;;;;;3.25;60.51;101975.72;5109128;28;20046;-71
2021/10/09 04:32:08;;;;;;;29.45;14.55;;;;;;;3.24;60.28;101974.88;5109146;28;20411;-71
2021/10/09 04:34:35;;;;;;;26.38;14.70;;;;;;;3.30;60.55;101975.69;5109446;28;20051;-72
2021/10/09 04:37:02;;;;;;;30.85;14.40;;;;;;;3.33;60.55;101978.22;5109668;28;20047;-74
2021/10/09 04:39:29;;;;;;;22.83;13.80;;;;;;;3.32;60.31;101976.50;5108282;28;20046;-71
2021/10/09 04:41:56;;;;;;;25.73;14.93;;;;;;;3.32;60.27;101979.13;5088663;28;20055;-72
2021/10/09 04:44:24;;;;;;;23.80;14.45;;;;;;;3.29;60.55;101981.78;5089461;28;20055;-75
2021/10/09 04:46:51;;;;;;;28.88;14.75;;;;;;;3.29;60.32;101976.53;5081788;28;20067;-72
2021/10/09 04:49:18;;;;;;;30.48;17.25;;;;;;;3.29;60.36;101987.00;5091207;28;20044;-73
2021/10/09 04:51:45;;;;;;;25.13;14.82;;;;;;;3.27;60.54;101983.53;5094152;28;20052;-72
2021/10/09 04:54:12;;;;;;;33.92;16.90;;;;;;;3.29;60.49;101980.00;5087198;28;20048;-72
2021/10/09 04:56:39;;;;;;;35.22;16.40;;;;;;;3.32;60.54;101986.97;5093404;28;20044;-72
2021/10/09 04:59:06;;;;;;;29.80;16.98;;;;;;;3.33;60.29;101984.34;5094030;28;20697;-71
2021/10/09 05:01:34;;;;;;;30.60;16.63;;;;;;;3.34;60.90;101982.56;5088213;28;20050;-70
2021/10/09 05:04:01;;;;;;;30.00;15.40;;;;;;;3.35;60.56;101985.16;5089042;28;20048;-71
2021/10/09 05:06:27;;;;;;;23.85;14.40;;;;;;;3.35;60.71;101985.16;5088890;28;20040;-73
2021/10/09 05:08:54;;;;;;;41.80;19.48;;;;;;;3.40;60.67;101982.47;5090888;28;20051;-78
2021/10/09 05:11:21;;;;;;;42.95;22.90;;;;;;;3.42;60.54;101986.81;5087415;28;20054;-76
2021/10/09 05:13:49;;;;;;;41.70;23.85;;;;;;;3.46;60.59;101985.00;5090063;28;20399;-75
2021/10/09 05:16:16;;;;;;;52.35;25.40;;;;;;;3.51;60.62;101982.31;5091955;28;20048;-75
2021/10/09 05:18:44;;;;;;;66.88;29.83;;;;;;;3.56;60.79;101989.19;5093518;28;20055;-74
2021/10/09 05:21:11;;;;;;;59.00;31.85;;;;;;;3.60;60.50;101990.88;5091162;28;20055;-76
2021/10/09 05:23:38;;;;;;;61.67;32.00;;;;;;;3.64;60.56;101994.31;5090301;28;20059;-73
2021/10/09 05:26:06;;;;;;;78.20;39.20;;;;;;;3.60;60.80;101996.09;5087181;28;20048;-74
2021/10/09 05:28:41;;;;;;;81.10;45.75;;;;;;;3.59;61.12;102001.34;5087423;28;20109;-73
2021/10/09 05:31:10;;;;;;;83.43;41.60;;;;;;;3.58;61.21;102002.22;5089571;28;20102;-70
2021/10/09 05:33:38;;;;;;;65.30;38.13;;;;;;;3.64;61.29;101999.53;5036622;28;20115;-73
2021/10/09 05:38:42;;;;;;;66.45;34.78;;;;;;;3.78;61.17;101994.97;4805807;22;20056;-71
2021/10/09 05:41:09;;;;;;;64.82;32.25;;;;;;;3.81;61.22;101997.50;5049919;28;20061;-74
2021/10/09 05:43:36;;;;;;;64.05;32.97;;;;;;;3.88;61.25;101997.41;5050877;28;20059;-70
2021/10/09 05:46:03;;;;;;;63.83;31.90;;;;;;;3.97;61.01;101992.88;5048889;28;20074;-71
2021/10/09 05:48:33;;;;;;;51.78;28.88;;;;;;;4.07;60.79;101995.34;5048346;28;20045;-77
2021/10/09 05:51:03;;;;;;;51.35;28.35;;;;;;;4.20;60.69;101989.88;5048410;28;20132;-75
2021/10/09 05:53:48;;;;;;;48.92;26.50;;;;;;;4.32;60.59;101980.06;5049251;28;20145;-69
2021/10/09 05:56:24;;;;;;;61.00;29.95;;;;;;;4.48;60.36;101988.50;5048430;28;20044;-76
2021/10/09 05:59:08;;;;;;;62.65;31.10;;;;;;;4.56;60.42;101991.84;5050077;28;20045;-78
2021/10/09 06:01:50;;;;;;;48.80;29.38;;;;;;;4.69;60.08;101982.84;5049034;28;20041;-73
2021/10/09 06:32:00;;;;;;;32.33;17.48;;;;;;;5.79;59.46;102012.72;4986848;28;20100;-70
2021/10/09 06:48:38;;;;;;;30.38;16.23;;;;;;;6.55;58.62;102024.78;4969322;28;20050;-72
2021/10/09 06:59:31;;;;;;;31.52;17.25;;;;;;;7.04;58.27;102031.28;5023055;28;20111;-73
2021/10/09 07:02:00;;;;;;;27.17;16.27;;;;;;;7.12;58.26;102038.09;5022722;28;20129;-73
2021/10/09 07:04:27;;;;;;;27.23;17.55;;;;;;;7.20;58.26;102033.44;5022033;28;20060;-73
2021/10/09 07:06:55;;;;;;;29.98;18.38;;;;;;;7.33;58.09;102028.69;5023325;28;20128;-71
2021/10/09 07:09:22;;;;;;;28.77;17.55;;;;;;;7.45;57.80;102034.44;5021561;28;20080;-69
2021/10/09 07:11:49;;;;;;;32.88;18.08;;;;;;;7.55;57.70;102031.53;5024284;28;20052;-74
2021/10/09 07:14:16;;;;;;;37.88;19.85;;;;;;;7.66;57.66;102039.94;5020953;28;20053;-72
2021/10/09 07:16:44;;;;;;;29.45;17.48;;;;;;;7.81;57.55;102041.22;5023397;28;20485;-72
2021/10/09 07:19:12;;;;;;;31.05;16.77;;;;;;;7.95;57.37;102043.41;5023378;28;20068;-70
2021/10/09 07:21:39;;;;;;;31.73;19.42;;;;;;;8.02;56.86;102042.28;5022468;28;20505;-71
2021/10/09 07:24:06;;;;;;;27.80;18.80;;;;;;;8.05;56.90;102042.19;5021580;28;20045;-71
2021/10/09 07:26:35;;;;;;;26.33;18.38;;;;;;;8.15;56.79;102042.72;5023629;28;20072;-72
2021/10/09 07:29:03;;;;;;;26.80;17.75;;;;;;;8.25;56.69;102046.78;5026343;28;20049;-72
2021/10/09 07:31:30;;;;;;;25.83;15.70;;;;;;;8.43;56.39;102053.22;5023535;28;20092;-76
2021/10/09 07:33:57;;;;;;;23.63;15.02;;;;;;;8.62;56.08;102050.78;5024286;28;20742;-68
2021/10/09 07:36:25;;;;;;;24.73;14.35;;;;;;;8.78;55.61;102054.59;5022334;28;20488;-76
2021/10/09 07:38:53;;;;;;;24.85;13.02;;;;;;;8.97;55.61;102060.06;5041505;28;20055;-72
2021/10/09 07:41:20;;;;;;;18.38;12.63;;;;;;;9.11;55.29;102054.28;5048719;28;20045;-74
2021/10/09 07:43:47;;;;;;;19.85;12.25;;;;;;;9.24;55.00;102062.59;5051977;28;20059;-69
2021/10/09 07:46:14;;;;;;;24.17;14.88;;;;;;;9.36;54.61;102056.84;5049774;28;20045;-74
2021/10/09 07:48:41;;;;;;;22.23;14.15;;;;;;;9.52;54.57;102062.38;5050025;28;20049;-77
2021/10/09 07:51:08;;;;;;;21.20;13.73;;;;;;;9.68;54.25;102062.63;5046875;28;20044;-77
2021/10/09 07:53:36;;;;;;;30.40;17.15;;;;;;;9.83;53.72;102065.56;5029761;28;20055;-74
2021/10/09 07:56:03;;;;;;;19.52;13.10;;;;;;;9.97;53.60;102062.38;5049415;28;20055;-73
2021/10/09 07:58:30;;;;;;;21.48;13.27;;;;;;;10.10;53.31;102058.28;5063095;28;20037;-75
2021/10/09 08:00:57;;;;;;;23.00;15.07;;;;;;;10.28;53.28;102062.81;5065555;28;20052;-76
2021/10/09 08:03:25;;;;;;;21.02;13.40;;;;;;;10.41;53.00;102071.13;5057115;28;20048;-71
2021/10/09 08:05:55;;;;;;;23.63;14.30;;;;;;;10.60;52.56;102059.75;5057109;28;20064;-69
2021/10/09 08:08:22;;;;;;;20.45;13.40;;;;;;;10.73;52.22;102071.47;5053656;28;20060;-70
2021/10/09 08:10:53;;;;;;;21.83;12.38;;;;;;;10.89;51.97;102054.03;5058265;28;20076;-72
2021/10/09 08:13:21;;;;;;;16.70;11.98;;;;;;;11.10;51.43;102053.97;5054440;28;20080;-72
2021/10/09 08:15:48;;;;;;;18.58;12.98;;;;;;;11.23;51.39;102052.47;5054609;28;20117;-72
2021/10/09 08:18:17;;;;;;;22.83;14.25;;;;;;;11.45;50.71;102060.28;5057062;28;20048;-74
2021/10/09 08:20:46;;;;;;;22.20;13.45;;;;;;;11.62;50.64;102059.47;5036415;28;20659;-74
2021/10/09 08:23:16;;;;;;;20.15;11.90;;;;;;;11.88;50.28;102051.19;5053976;28;20672;-76
2021/10/09 08:36:53;;;;;;;18.88;10.70;;;;;;;13.13;47.82;102040.34;5048292;28;20252;-72
2021/10/09 08:39:21;;;;;;;18.67;9.48;;;;;;;13.39;47.18;102045.06;5051475;28;20052;-71
2021/10/09 08:41:48;;;;;;;14.52;9.48;;;;;;;13.68;46.50;102049.69;5049945;28;20078;-72
2021/10/09 08:44:16;;;;;;;16.05;9.80;;;;;;;13.82;46.15;102039.13;5060127;28;20147;-71
2021/10/09 08:46:43;;;;;;;13.05;8.40;;;;;;;14.01;45.75;102044.25;5058209;28;20063;-71
2021/10/09 08:49:10;;;;;;;14.05;8.98;;;;;;;14.24;44.83;102037.59;5049410;28;20586;-74
2021/10/09 08:51:38;;;;;;;12.77;9.25;;;;;;;14.37;44.43;102040.34;5054421;28;20517;-71
2021/10/09 08:54:07;;;;;;;12.40;8.02;;;;;;;14.46;44.08;102031.81;5045786;28;20137;-75
2021/10/09 08:56:38;;;;;;;15.98;11.07;;;;;;;14.65;43.96;102028.06;5057821;28;20053;-75
2021/10/09 08:59:09;;;;;;;12.80;7.72;;;;;;;14.88;42.76;102024.84;5056741;28;20461;-77
2021/10/09 09:04:45;;;;;;;10.60;5.50;;;;;;;15.30;41.15;102019.53;5085961;28;20063;-73
2021/10/09 09:40:40;;;;;;;7.03;3.95;;;;;;;15.85;35.15;102018.63;5071843;28;20112;-77
2021/10/09 09:43:07;;;;;;;6.90;4.53;;;;;;;15.70;34.75;102011.66;5071147;28;20044;-74
2021/10/09 09:45:36;;;;;;;10.30;5.93;;;;;;;15.65;34.34;102016.41;5069630;28;20045;-74
2021/10/09 09:48:04;;;;;;;9.82;5.32;;;;;;;15.59;34.26;102014.13;5072723;28;20083;-75
2021/10/09 09:50:35;;;;;;;10.68;4.65;;;;;;;15.59;34.31;102009.69;5069471;28;20080;-73
2021/10/09 09:53:03;;;;;;;7.85;5.88;;;;;;;15.62;34.14;102006.78;5067500;28;20052;-75
2021/10/09 09:55:30;;;;;;;14.93;5.55;;;;;;;15.70;34.15;102011.66;5069789;28;20044;-77
2021/10/09 09:58:01;;;;;;;9.10;5.05;;;;;;;15.79;33.96;102010.19;5070636;28;20044;-76
2021/10/09 10:00:33;;;;;;;10.10;5.25;;;;;;;15.76;33.90;102010.41;5068750;28;20040;-73
2021/10/09 10:03:02;;;;;;;11.80;4.68;;;;;;;15.73;33.60;102006.09;5066703;28;20052;-73
2021/10/09 10:05:29;;;;;;;11.30;4.88;;;;;;;15.78;34.26;102006.69;5067057;28;20059;-76
2021/10/09 10:07:58;;;;;;;8.85;5.25;;;;;;;15.83;33.47;102006.38;5076576;28;20102;-73
2021/10/09 10:10:26;;;;;;;6.55;4.10;;;;;;;15.82;33.44;102002.84;5074078;28;20506;-74
2021/10/09 10:12:56;;;;;;;9.20;4.72;;;;;;;15.78;33.46;102003.16;5071110;28;20053;-75
2021/10/09 10:15:28;;;;;;;6.53;4.07;;;;;;;15.78;33.00;101995.19;5056546;28;20049;-72
2021/10/09 10:17:55;;;;;;;6.18;4.43;;;;;;;15.78;32.95;101989.84;5037105;28;20473;-77
2021/10/09 10:20:23;;;;;;;10.02;4.95;;;;;;;15.69;32.93;101993.94;5040148;28;20049;-75
2021/10/09 10:22:55;;;;;;;6.63;4.82;;;;;;;15.78;33.02;101982.69;5042996;28;20057;-79
2021/10/09 10:25:50;;;;;;;6.28;4.65;;;;;;;15.74;32.91;101989.19;5043717;28;20485;-70
2021/10/09 10:28:26;;;;;;;7.32;4.18;;;;;;;15.71;32.90;101992.03;5037213;28;20042;-87
2021/10/09 10:31:04;;;;;;;7.97;4.55;;;;;;;15.83;33.07;101993.91;5036234;28;20412;-78
2021/10/09 10:33:37;;;;;;;6.07;3.70;;;;;;;15.96;32.75;101990.41;5034594;28;20076;-74
2021/10/09 10:36:04;;;;;;;5.82;4.45;;;;;;;16.00;32.70;101982.09;5027755;28;20293;-73
2021/10/09 10:38:47;;;;;;;5.57;4.70;;;;;;;16.03;32.72;101989.88;5025850;28;20069;-72
2021/10/09 10:41:21;;;;;;;5.75;3.72;;;;;;;16.13;32.75;101982.09;5025815;28;20185;-76
2021/10/09 10:43:54;;;;;;;6.65;4.68;;;;;;;16.19;32.27;101991.53;5026039;28;20262;-71
2021/10/09 10:46:45;;;;;;;6.13;4.85;;;;;;;16.35;32.33;101975.28;5023186;28;20136;-73
2021/10/09 10:49:18;;;;;;;6.32;3.97;;;;;;;16.24;32.63;101979.59;4961865;28;20058;-70
2021/10/09 10:51:51;;;;;;;7.93;4.70;;;;;;;16.38;32.72;101975.94;4959641;28;20106;-71
2021/10/09 10:54:30;;;;;;;7.88;4.70;;;;;;;16.27;32.13;101972.31;4958214;28;20106;-71
2021/10/09 10:57:21;;;;;;;8.40;4.72;;;;;;;16.11;32.50;101978.69;4960896;28;20143;-72
2021/10/09 10:59:52;;;;;;;8.45;5.30;;;;;;;16.10;32.92;101974.34;4964193;28;20056;-73
2021/10/09 11:02:21;;;;;;;11.68;5.47;;;;;;;16.14;32.74;101961.66;4980297;28;20077;-74
2021/10/09 11:04:50;;;;;;;6.28;4.28;;;;;;;16.20;32.43;101970.06;4980223;28;20129;-79
2021/10/09 11:07:18;;;;;;;7.32;4.78;;;;;;;16.36;32.43;101969.84;4978278;28;20412;-72
2021/10/09 11:09:45;;;;;;;7.18;4.15;;;;;;;16.43;32.28;101962.28;4979606;28;20054;-74
2021/10/09 11:12:27;;;;;;;6.72;4.68;;;;;;;16.43;32.38;101964.97;4982649;28;20727;-75
2021/10/09 11:15:07;;;;;;;5.28;3.75;;;;;;;16.34;32.29;101962.94;4986188;28;20051;-71
2021/10/09 11:17:35;;;;;;;6.53;4.32;;;;;;;16.20;32.24;101964.72;4986036;28;20054;-71
2021/10/09 11:20:03;;;;;;;7.53;5.00;;;;;;;16.19;32.33;101960.38;4968183;28;20046;-74
2021/10/09 11:22:39;;;;;;;4.97;3.97;;;;;;;16.36;32.62;101956.53;4981030;28;20154;-73
2021/10/09 11:25:07;;;;;;;8.02;4.95;;;;;;;16.44;32.76;101954.19;4986466;28;20170;-73
2021/10/09 11:27:38;;;;;;;6.30;4.47;;;;;;;16.53;32.43;101955.34;5046839;28;20044;-72
2021/10/09 11:30:08;;;;;;;11.40;4.97;;;;;;;16.45;32.70;101955.03;5045134;28;20512;-73
2021/10/09 11:32:37;;;;;;;7.65;4.32;;;;;;;16.38;32.47;101949.28;5046241;28;20124;-73
2021/10/09 11:35:08;;;;;;;11.18;5.00;;;;;;;16.38;32.74;101941.25;5047571;28;20044;-75
2021/10/09 11:37:47;;;;;;;8.70;5.18;;;;;;;16.40;32.97;101935.84;5044797;28;20052;-70
2021/10/09 11:40:16;;;;;;;8.10;4.88;;;;;;;16.37;32.70;101944.06;5044404;28;20409;-72
2021/10/09 11:42:55;;;;;;;8.73;4.88;;;;;;;16.30;32.51;101934.78;5044847;28;20053;-75
2021/10/09 11:45:27;;;;;;;8.73;5.22;;;;;;;16.25;32.45;101933.28;5046383;28;20057;-74
2021/10/09 11:53:42;;;;;;;6.95;4.75;;;;;;;16.49;32.27;101924.50;5045379;28;20079;-75
2021/10/09 11:56:11;;;;;;;7.53;5.13;;;;;;;16.41;32.38;101935.72;5049202;28;20072;-74
2021/10/09 11:58:52;;;;;;;10.48;6.07;;;;;;;16.33;32.69;101934.56;5050179;28;20658;-74
2021/10/09 12:01:44;;;;;;;8.73;4.78;;;;;;;16.26;32.84;101931.50;5031232;28;20049;-76
2021/10/09 12:04:20;;;;;;;6.47;5.13;;;;;;;16.25;33.11;101924.44;5028635;28;20049;-75
2021/10/09 12:06:52;;;;;;;9.02;4.40;;;;;;;16.25;32.90;101925.28;5052063;28;20049;-82
2021/10/09 12:09:38;;;;;;;10.20;4.68;;;;;;;16.25;32.65;101917.28;5055700;28;20132;-79
2021/10/09 12:12:17;;;;;;;9.57;4.82;;;;;;;16.28;32.54;101923.34;5052603;28;20055;-79
2021/10/09 12:14:47;;;;;;;8.45;4.90;;;;;;;16.21;32.71;101921.13;5058661;28;20049;-82
2021/10/09 12:17:16;;;;;;;10.13;6.07;;;;;;;16.18;32.99;101908.00;5055245;28;20135;-76
2021/10/09 12:19:46;;;;;;;7.30;4.95;;;;;;;16.14;32.65;101919.00;5047231;28;20481;-76
2021/10/09 12:22:14;;;;;;;8.38;5.65;;;;;;;16.10;33.02;101917.50;5054371;28;20049;-71
2021/10/09 12:24:49;;;;;;;10.77;5.75;;;;;;;16.14;32.98;101916.34;5052592;28;20131;-74
2021/10/09 12:27:18;;;;;;;8.80;5.32;;;;;;;16.16;33.01;101917.09;5052983;28;20040;-75
2021/10/09 12:30:03;;;;;;;7.35;4.07;;;;;;;16.19;32.83;101909.72;5054100;28;20047;-75
2021/10/09 12:32:32;;;;;;;10.93;5.55;;;;;;;16.20;32.43;101911.41;5052568;28;20078;-76
2021/10/09 12:35:13;;;;;;;6.90;4.80;;;;;;;16.19;32.36;101900.88;5057509;28;20057;-76
2021/10/09 12:37:57;;;;;;;10.48;4.97;;;;;;;16.27;32.59;101889.69;5057689;28;20068;-76
2021/10/09 12:40:26;;;;;;;9.15;5.35;;;;;;;16.30;32.83;101900.13;5058700;28;20329;-77
2021/10/09 12:42:55;;;;;;;6.28;4.80;;;;;;;16.33;33.02;101892.75;5067919;28;20078;-78
2021/10/09 12:45:24;;;;;;;12.98;5.28;;;;;;;16.39;32.73;101895.00;5062431;28;20099;-74
2021/10/09 12:47:51;;;;;;;9.60;6.07;;;;;;;16.34;32.99;101896.28;5062241;28;20133;-74
2021/10/09 12:50:19;;;;;;;6.93;4.65;;;;;;;16.34;32.88;101888.28;5066943;28;20041;-75
2021/10/09 12:52:46;;;;;;;8.18;5.22;;;;;;;16.20;32.88;101898.09;5063268;28;20049;-78
2021/10/09 12:55:14;;;;;;;9.48;5.50;;;;;;;16.18;32.95;101888.50;5059165;28;20052;-80
2021/10/09 12:57:49;;;;;;;7.75;5.03;;;;;;;16.20;32.75;101887.41;5059286;28;20057;-80
2021/10/09 13:00:17;;;;;;;10.88;5.90;;;;;;;16.15;32.53;101889.59;5063774;28;20056;-80
2021/10/09 13:02:46;;;;;;;6.30;4.80;;;;;;;16.09;32.54;101875.81;5056184;28;20049;-84
2021/10/09 13:05:14;;;;;;;7.90;5.00;;;;;;;16.07;32.49;101883.91;5059120;28;20075;-80
2021/10/09 13:07:42;;;;;;;10.55;4.82;;;;;;;16.05;32.81;101884.03;5062075;28;20567;-78
2021/10/09 13:10:11;;;;;;;8.15;4.97;;;;;;;16.06;32.85;101887.53;5063688;28;20216;-79
2021/10/09 13:12:38;;;;;;;7.80;5.63;;;;;;;16.07;33.09;101889.25;5038633;28;20052;-78
2021/10/09 13:15:07;;;;;;;9.23;5.55;;;;;;;16.08;32.87;101882.09;5062139;28;20052;-75
2021/10/09 13:17:34;;;;;;;6.70;5.28;;;;;;;16.05;32.91;101869.84;5024524;28;20226;-77
2021/10/09 13:20:03;;;;;;;7.95;5.28;;;;;;;16.07;33.04;101878.59;5059030;28;20224;-74
2021/10/09 13:22:30;;;;;;;9.68;4.75;;;;;;;16.10;32.92;101872.19;5058288;28;20404;-76
2021/10/09 13:24:58;;;;;;;11.98;5.45;;;;;;;16.11;32.60;101873.91;5065045;28;20044;-74